sensor_id;sensor_type;location;lat;lon;timestamp;pressure;altitude;pressure_sealevel;temperature;humidity
69982;BME280;57319;56.274;43.980;2023-04-25T00:01:04;99880.56;;;11.11;49.83
69982;BME280;57319;56.274;43.980;2023-04-25T00:03:31;99876.25;;;11.11;49.70
69982;BME280;57319;56.274;43.980;2023-04-25T00:06:00;99877.97;;;11.11;50.04
69982;BME280;57319;56.274;43.980;2023-04-25T00:08:29;99877.16;;;11.07;50.09
69982;BME280;57319;56.274;43.980;2023-04-25T00:10:56;99892.63;;;11.06;50.22
69982;BME280;57319;56.274;43.980;2023-04-25T00:13:22;99890.94;;;11.05;50.28
69982;BME280;57319;56.274;43.980;2023-04-25T00:15:48;99886.63;;;11.05;50.57
69982;BME280;57319;56.274;43.980;2023-04-25T00:18:14;99886.59;;;11.08;51.13
69982;BME280;57319;56.274;43.980;2023-04-25T00:20:40;99890.03;;;11.10;50.67
69982;BME280;57319;56.274;43.980;2023-04-25T00:23:10;99883.19;;;11.08;50.67
69982;BME280;57319;56.274;43.980;2023-04-25T00:25:35;99883.19;;;11.06;50.93
69982;BME280;57319;56.274;43.980;2023-04-25T00:28:01;99894.38;;;11.05;50.97
69982;BME280;57319;56.274;43.980;2023-04-25T00:30:27;99891.78;;;11.05;50.70
69982;BME280;57319;56.274;43.980;2023-04-25T00:32:52;99890.94;;;11.05;51.26
69982;BME280;57319;56.274;43.980;2023-04-25T00:35:18;99886.63;;;11.05;51.10
69982;BME280;57319;56.274;43.980;2023-04-25T00:37:44;99891.84;;;11.02;51.18
69982;BME280;57319;56.274;43.980;2023-04-25T00:40:10;99885.94;;;10.92;51.16
69982;BME280;57319;56.274;43.980;2023-04-25T00:42:37;99883.53;;;10.80;51.19
69982;BME280;57319;56.274;43.980;2023-04-25T00:45:05;99887.06;;;10.68;51.55
69982;BME280;57319;56.274;43.980;2023-04-25T00:47:32;99884.63;;;10.57;51.92
69982;BME280;57319;56.274;43.980;2023-04-25T00:49:58;99888.16;;;10.44;52.46
69982;BME280;57319;56.274;43.980;2023-04-25T00:52:24;99889.13;;;10.33;52.87
69982;BME280;57319;56.274;43.980;2023-04-25T00:54:50;99886.56;;;10.29;52.95
69982;BME280;57319;56.274;43.980;2023-04-25T00:57:15;99884.94;;;10.20;53.69
69982;BME280;57319;56.274;43.980;2023-04-25T00:59:45;99889.28;;;10.13;53.37
69982;BME280;57319;56.274;43.980;2023-04-25T01:02:11;99883.38;;;10.04;53.62
69982;BME280;57319;56.274;43.980;2023-04-25T01:04:36;99886.84;;;9.99;54.37
69982;BME280;57319;56.274;43.980;2023-04-25T01:07:02;99884.31;;;9.95;54.44
69982;BME280;57319;56.274;43.980;2023-04-25T01:09:30;99871.50;;;9.87;54.31
69982;BME280;57319;56.274;43.980;2023-04-25T01:11:56;99879.28;;;9.81;54.52
69982;BME280;57319;56.274;43.980;2023-04-25T01:14:23;99882.72;;;9.78;54.75
69982;BME280;57319;56.274;43.980;2023-04-25T01:16:48;99877.59;;;9.74;54.88
69982;BME280;57319;56.274;43.980;2023-04-25T01:19:16;99876.75;;;9.75;55.00
69982;BME280;57319;56.274;43.980;2023-04-25T01:21:43;99882.75;;;9.77;55.14
69982;BME280;57319;56.274;43.980;2023-04-25T01:24:10;99881.03;;;9.74;55.37
69982;BME280;57319;56.274;43.980;2023-04-25T01:26:36;99881.06;;;9.73;55.35
69982;BME280;57319;56.274;43.980;2023-04-25T01:29:04;99886.19;;;9.70;55.42
69982;BME280;57319;56.274;43.980;2023-04-25T01:31:30;99886.19;;;9.70;55.48
69982;BME280;57319;56.274;43.980;2023-04-25T01:33:56;99886.19;;;9.68;55.55
69982;BME280;57319;56.274;43.980;2023-04-25T01:36:22;99886.19;;;9.68;55.93
69982;BME280;57319;56.274;43.980;2023-04-25T01:38:48;99888.78;;;9.68;55.71
69982;BME280;57319;56.274;43.980;2023-04-25T01:41:14;99892.22;;;9.64;55.44
69982;BME280;57319;56.274;43.980;2023-04-25T01:43:40;99890.53;;;9.61;55.84
69982;BME280;57319;56.274;43.980;2023-04-25T01:46:06;99888.81;;;9.59;55.70
69982;BME280;57319;56.274;43.980;2023-04-25T01:48:32;99895.69;;;9.58;55.85
69982;BME280;57319;56.274;43.980;2023-04-25T01:50:58;99900.84;;;9.57;56.03
69982;BME280;57319;56.274;43.980;2023-04-25T01:53:23;99903.41;;;9.57;55.76
69982;BME280;57319;56.274;43.980;2023-04-25T01:55:49;99895.72;;;9.57;56.08
69982;BME280;57319;56.274;43.980;2023-04-25T01:58:15;99901.69;;;9.57;56.17
69982;BME280;57319;56.274;43.980;2023-04-25T02:00:40;99891.41;;;9.60;56.26
69982;BME280;57319;56.274;43.980;2023-04-25T02:03:07;99903.41;;;9.60;56.14
69982;BME280;57319;56.274;43.980;2023-04-25T02:05:36;99894.84;;;9.59;56.25
69982;BME280;57319;56.274;43.980;2023-04-25T02:08:04;99904.25;;;9.63;56.27
69982;BME280;57319;56.274;43.980;2023-04-25T02:10:30;99902.47;;;9.67;56.27
69982;BME280;57319;56.274;43.980;2023-04-25T02:12:57;99899.94;;;9.68;56.20
69982;BME280;57319;56.274;43.980;2023-04-25T02:15:22;99897.34;;;9.68;55.93
69982;BME280;57319;56.274;43.980;2023-04-25T02:18:08;99893.91;;;9.70;55.98
69982;BME280;57319;56.274;43.980;2023-04-25T02:20:35;99895.63;;;9.71;56.20
69982;BME280;57319;56.274;43.980;2023-04-25T02:23:02;99901.59;;;9.76;56.49
69982;BME280;57319;56.274;43.980;2023-04-25T02:25:28;99902.44;;;9.75;56.58
69982;BME280;57319;56.274;43.980;2023-04-25T02:27:53;99906.75;;;9.73;56.58
69982;BME280;57319;56.274;43.980;2023-04-25T02:30:20;99901.59;;;9.74;56.46
69982;BME280;57319;56.274;43.980;2023-04-25T02:32:46;99901.53;;;9.80;56.68
69982;BME280;57319;56.274;43.980;2023-04-25T02:35:11;99913.50;;;9.89;56.95
69982;BME280;57319;56.274;43.980;2023-04-25T02:37:38;99905.75;;;9.92;56.40
69982;BME280;57319;56.274;43.980;2023-04-25T02:40:05;99905.72;;;9.95;56.20
69982;BME280;57319;56.274;43.980;2023-04-25T02:42:31;99908.25;;;10.00;55.85
69982;BME280;57319;56.274;43.980;2023-04-25T02:44:56;99894.50;;;10.04;55.80
69982;BME280;57319;56.274;43.980;2023-04-25T02:47:22;99903.91;;;10.10;55.73
69982;BME280;57319;56.274;43.980;2023-04-25T02:49:48;99901.28;;;10.14;55.59
69982;BME280;57319;56.274;43.980;2023-04-25T02:52:13;99902.94;;;10.20;55.31
69982;BME280;57319;56.274;43.980;2023-04-25T02:54:42;99902.00;;;10.27;55.12
69982;BME280;57319;56.274;43.980;2023-04-25T02:57:08;99900.25;;;10.35;55.03
69982;BME280;57319;56.274;43.980;2023-04-25T02:59:34;99901.03;;;10.44;55.15
69982;BME280;57319;56.274;43.980;2023-04-25T03:02:00;99895.88;;;10.48;54.64
69982;BME280;57319;56.274;43.980;2023-04-25T03:04:26;99894.91;;;10.57;54.51
69982;BME280;57319;56.274;43.980;2023-04-25T03:06:52;99905.06;;;10.69;54.54
69982;BME280;57319;56.274;43.980;2023-04-25T03:09:18;99897.25;;;10.79;54.22
69982;BME280;57319;56.274;43.980;2023-04-25T03:11:45;99902.31;;;10.88;54.30
69982;BME280;57319;56.274;43.980;2023-04-25T03:14:11;99905.63;;;10.95;54.41
69982;BME280;57319;56.274;43.980;2023-04-25T03:16:37;99903.00;;;11.01;54.67
69982;BME280;57319;56.274;43.980;2023-04-25T03:19:04;99907.25;;;11.05;54.01
69982;BME280;57319;56.274;43.980;2023-04-25T03:21:31;99904.56;;;11.14;54.28
69982;BME280;57319;56.274;43.980;2023-04-25T03:23:58;99897.63;;;11.21;54.13
69982;BME280;57319;56.274;43.980;2023-04-25T03:26:24;99901.81;;;11.28;54.36
69982;BME280;57319;56.274;43.980;2023-04-25T03:28:49;99907.72;;;11.35;53.94
69982;BME280;57319;56.274;43.980;2023-04-25T03:31:15;99902.53;;;11.38;53.71
69982;BME280;57319;56.274;43.980;2023-04-25T03:33:41;99899.84;;;11.44;53.48
69982;BME280;57319;56.274;43.980;2023-04-25T03:36:07;99895.44;;;11.52;53.44
69982;BME280;57319;56.274;43.980;2023-04-25T03:38:33;99893.63;;;11.59;53.00
69982;BME280;57319;56.274;43.980;2023-04-25T03:40:58;99902.06;;;11.69;52.83
69982;BME280;57319;56.274;43.980;2023-04-25T03:43:24;99894.25;;;11.77;52.72
69982;BME280;57319;56.274;43.980;2023-04-25T03:45:50;99899.25;;;11.86;52.28
69982;BME280;57319;56.274;43.980;2023-04-25T03:48:16;99900.00;;;11.96;52.35
69982;BME280;57319;56.274;43.980;2023-04-25T03:50:41;99892.97;;;12.04;52.25
69982;BME280;57319;56.274;43.980;2023-04-25T03:53:07;99888.56;;;12.11;51.82
69982;BME280;57319;56.274;43.980;2023-04-25T03:55:33;99889.34;;;12.14;52.17
69982;BME280;57319;56.274;43.980;2023-04-25T03:57:58;99887.59;;;12.18;51.48
69982;BME280;57319;56.274;43.980;2023-04-25T04:00:25;99885.78;;;12.23;51.49
69982;BME280;57319;56.274;43.980;2023-04-25T04:02:51;99890.78;;;12.31;51.04
69982;BME280;57319;56.274;43.980;2023-04-25T04:05:16;99889.91;;;12.33;50.94
69982;BME280;57319;56.274;43.980;2023-04-25T04:07:42;99895.78;;;12.42;50.65
69982;BME280;57319;56.274;43.980;2023-04-25T04:10:09;99896.50;;;12.48;50.67
69982;BME280;57319;56.274;43.980;2023-04-25T04:12:36;99894.69;;;12.55;50.35
69982;BME280;57319;56.274;43.980;2023-04-25T04:15:05;99887.63;;;12.63;50.59
69982;BME280;57319;56.274;43.980;2023-04-25T04:17:33;99894.34;;;12.72;49.98
69982;BME280;57319;56.274;43.980;2023-04-25T04:19:59;99893.38;;;12.79;50.02
69982;BME280;57319;56.274;43.980;2023-04-25T04:22:25;99890.63;;;12.87;50.25
69982;BME280;57319;56.274;43.980;2023-04-25T04:24:51;99889.59;;;12.96;49.81
69982;BME280;57319;56.274;43.980;2023-04-25T04:27:17;99887.75;;;13.01;49.50
69982;BME280;57319;56.274;43.980;2023-04-25T04:29:43;99885.19;;;12.99;49.48
69982;BME280;57319;56.274;43.980;2023-04-25T04:32:09;99891.94;;;13.08;49.33
69982;BME280;57319;56.274;43.980;2023-04-25T04:34:35;99894.34;;;13.16;49.35
69982;BME280;57319;56.274;43.980;2023-04-25T04:37:01;99893.16;;;13.31;48.80
69982;BME280;57319;56.274;43.980;2023-04-25T04:39:27;99891.19;;;13.44;48.44
69982;BME280;57319;56.274;43.980;2023-04-25T04:41:54;99893.41;;;13.61;47.90
69982;BME280;57319;56.274;43.980;2023-04-25T04:44:19;99888.81;;;13.72;47.77
69982;BME280;57319;56.274;43.980;2023-04-25T04:46:45;99895.38;;;13.87;47.54
69982;BME280;57319;56.274;43.980;2023-04-25T04:49:12;99883.91;;;13.97;46.59
69982;BME280;57319;56.274;43.980;2023-04-25T04:51:39;99889.69;;;14.08;46.46
69982;BME280;57319;56.274;43.980;2023-04-25T04:54:06;99881.75;;;14.15;46.13
69982;BME280;57319;56.274;43.980;2023-04-25T04:56:32;99887.56;;;14.23;45.61
69982;BME280;57319;56.274;43.980;2023-04-25T04:58:58;99885.69;;;14.30;45.38
69982;BME280;57319;56.274;43.980;2023-04-25T05:01:24;99884.56;;;14.40;45.18
69982;BME280;57319;56.274;43.980;2023-04-25T05:03:51;99881.00;;;14.44;44.70
69982;BME280;57319;56.274;43.980;2023-04-25T05:06:18;99883.50;;;14.47;44.90
69982;BME280;57319;56.274;43.980;2023-04-25T05:08:44;99885.81;;;14.58;44.72
69982;BME280;57319;56.274;43.980;2023-04-25T05:11:11;99882.22;;;14.64;44.26
69982;BME280;57319;56.274;43.980;2023-04-25T05:13:37;99877.69;;;14.72;43.90
69982;BME280;57319;56.274;43.980;2023-04-25T05:16:03;99877.50;;;14.78;43.95
69982;BME280;57319;56.274;43.980;2023-04-25T05:18:29;99881.44;;;14.91;43.82
69982;BME280;57319;56.274;43.980;2023-04-25T05:20:55;99889.03;;;14.99;43.55
69982;BME280;57319;56.274;43.980;2023-04-25T05:23:20;99880.16;;;15.06;43.26
69982;BME280;57319;56.274;43.980;2023-04-25T05:25:46;99885.13;;;15.14;42.86
69982;BME280;57319;56.274;43.980;2023-04-25T05:28:12;99878.81;;;15.23;42.43
69982;BME280;57319;56.274;43.980;2023-04-25T05:30:38;99876.88;;;15.30;42.46
69982;BME280;57319;56.274;43.980;2023-04-25T05:33:04;99879.38;;;15.33;42.46
69982;BME280;57319;56.274;43.980;2023-04-25T05:35:30;99881.75;;;15.40;42.65
69982;BME280;57319;56.274;43.980;2023-04-25T05:37:56;99877.19;;;15.49;42.70
69982;BME280;57319;56.274;43.980;2023-04-25T05:40:21;99877.69;;;15.60;42.35
69982;BME280;57319;56.274;43.980;2023-04-25T05:42:47;99880.09;;;15.66;41.88
69982;BME280;57319;56.274;43.980;2023-04-25T05:45:13;99876.47;;;15.72;41.49
69982;BME280;57319;56.274;43.980;2023-04-25T05:47:38;99880.53;;;15.81;41.52
69982;BME280;57319;56.274;43.980;2023-04-25T05:50:05;99881.19;;;15.87;41.09
69982;BME280;57319;56.274;43.980;2023-04-25T05:52:31;99875.75;;;15.95;41.07
69982;BME280;57319;56.274;43.980;2023-04-25T05:54:57;99869.50;;;16.01;41.11
69982;BME280;57319;56.274;43.980;2023-04-25T05:57:26;99875.28;;;16.09;41.22
69982;BME280;57319;56.274;43.980;2023-04-25T05:59:52;99874.94;;;16.18;41.19
69982;BME280;57319;56.274;43.980;2023-04-25T06:02:22;99874.59;;;16.29;40.90
69982;BME280;57319;56.274;43.980;2023-04-25T06:04:51;99871.91;;;16.32;40.45
69982;BME280;57319;56.274;43.980;2023-04-25T06:07:17;99867.72;;;16.28;40.39
69982;BME280;57319;56.274;43.980;2023-04-25T06:09:44;99859.00;;;16.29;40.39
69982;BME280;57319;56.274;43.980;2023-04-25T06:12:09;99862.34;;;16.33;40.47
69982;BME280;57319;56.274;43.980;2023-04-25T06:14:35;99858.75;;;16.37;40.67
69982;BME280;57319;56.274;43.980;2023-04-25T06:17:02;99852.38;;;16.45;40.74
69982;BME280;57319;56.274;43.980;2023-04-25T06:19:32;99848.56;;;16.56;38.96
69982;BME280;57319;56.274;43.980;2023-04-25T06:21:59;99849.06;;;16.66;38.84
69982;BME280;57319;56.274;43.980;2023-04-25T06:24:25;99872.66;;;16.85;38.51
69982;BME280;57319;56.274;43.980;2023-04-25T06:26:51;99866.78;;;17.03;37.23
69982;BME280;57319;56.274;43.980;2023-04-25T06:29:18;99847.00;;;16.99;37.22
69982;BME280;57319;56.274;43.980;2023-04-25T06:31:44;99851.84;;;17.08;37.10
69982;BME280;57319;56.274;43.980;2023-04-25T06:34:10;99850.84;;;17.12;36.72
69982;BME280;57319;56.274;43.980;2023-04-25T06:36:36;99860.88;;;17.22;36.80
69982;BME280;57319;56.274;43.980;2023-04-25T06:39:01;99857.13;;;17.29;36.54
69982;BME280;57319;56.274;43.980;2023-04-25T06:41:27;99851.59;;;17.38;36.42
69982;BME280;57319;56.274;43.980;2023-04-25T06:43:53;99848.44;;;17.52;36.43
69982;BME280;57319;56.274;43.980;2023-04-25T06:46:19;99857.53;;;17.62;36.54
69982;BME280;57319;56.274;43.980;2023-04-25T06:48:44;99860.22;;;17.61;35.93
69982;BME280;57319;56.274;43.980;2023-04-25T06:51:10;99852.09;;;17.69;36.32
69982;BME280;57319;56.274;43.980;2023-04-25T06:53:36;99846.13;;;17.87;35.94
69982;BME280;57319;56.274;43.980;2023-04-25T06:56:02;99854.84;;;18.08;35.79
69982;BME280;57319;56.274;43.980;2023-04-25T06:58:28;99845.47;;;18.25;35.35
69982;BME280;57319;56.274;43.980;2023-04-25T07:00:54;99845.25;;;18.29;35.22
69982;BME280;57319;56.274;43.980;2023-04-25T07:03:20;99845.19;;;18.31;35.28
69982;BME280;57319;56.274;43.980;2023-04-25T07:05:46;99840.97;;;18.28;35.37
69982;BME280;57319;56.274;43.980;2023-04-25T07:08:12;99845.09;;;18.34;35.54
69982;BME280;57319;56.274;43.980;2023-04-25T07:10:37;99846.66;;;18.38;35.73
69982;BME280;57319;56.274;43.980;2023-04-25T07:13:03;99845.53;;;18.44;35.44
69982;BME280;57319;56.274;43.980;2023-04-25T07:15:29;99861.66;;;18.52;35.19
69982;BME280;57319;56.274;43.980;2023-04-25T07:17:55;99854.53;;;18.56;34.73
69982;BME280;57319;56.274;43.980;2023-04-25T07:20:20;99849.16;;;18.60;34.94
69982;BME280;57319;56.274;43.980;2023-04-25T07:22:46;99846.56;;;18.79;34.94
69982;BME280;57319;56.274;43.980;2023-04-25T07:25:12;99846.03;;;18.92;34.81
69982;BME280;57319;56.274;43.980;2023-04-25T07:27:38;99856.09;;;18.99;34.42
69982;BME280;57319;56.274;43.980;2023-04-25T07:30:05;99852.16;;;18.91;34.01
69982;BME280;57319;56.274;43.980;2023-04-25T07:32:33;99848.50;;;18.95;34.29
69982;BME280;57319;56.274;43.980;2023-04-25T07:34:58;99842.06;;;19.02;34.24
69982;BME280;57319;56.274;43.980;2023-04-25T07:37:24;99847.56;;;19.15;34.08
69982;BME280;57319;56.274;43.980;2023-04-25T07:39:51;99841.22;;;19.21;33.79
69982;BME280;57319;56.274;43.980;2023-04-25T07:42:17;99838.31;;;19.27;33.55
69982;BME280;57319;56.274;43.980;2023-04-25T07:44:42;99837.47;;;19.26;33.41
69982;BME280;57319;56.274;43.980;2023-04-25T07:47:09;99820.97;;;19.26;33.21
69982;BME280;57319;56.274;43.980;2023-04-25T07:49:38;99829.25;;;19.34;33.13
69982;BME280;57319;56.274;43.980;2023-04-25T07:52:05;99820.59;;;19.33;32.92
69982;BME280;57319;56.274;43.980;2023-04-25T07:54:34;99832.50;;;19.39;32.87
69982;BME280;57319;56.274;43.980;2023-04-25T07:56:59;99826.94;;;19.47;32.84
69982;BME280;57319;56.274;43.980;2023-04-25T07:59:25;99828.22;;;19.56;32.57
69982;BME280;57319;56.274;43.980;2023-04-25T08:01:51;99825.00;;;19.50;32.10
69982;BME280;57319;56.274;43.980;2023-04-25T08:04:17;99823.16;;;19.53;32.13
69982;BME280;57319;56.274;43.980;2023-04-25T08:06:42;99810.78;;;19.39;32.43
69982;BME280;57319;56.274;43.980;2023-04-25T08:09:09;99809.41;;;19.49;32.56
69982;BME280;57319;56.274;43.980;2023-04-25T08:11:35;99805.44;;;19.59;32.58
69982;BME280;57319;56.274;43.980;2023-04-25T08:14:01;99807.53;;;19.70;32.21
69982;BME280;57319;56.274;43.980;2023-04-25T08:16:27;99808.38;;;19.71;31.82
69982;BME280;57319;56.274;43.980;2023-04-25T08:18:53;99802.13;;;19.56;31.96
69982;BME280;57319;56.274;43.980;2023-04-25T08:21:19;99799.81;;;19.67;31.96
69982;BME280;57319;56.274;43.980;2023-04-25T08:23:45;99790.09;;;19.71;32.11
69982;BME280;57319;56.274;43.980;2023-04-25T08:26:11;99788.66;;;19.82;31.81
69982;BME280;57319;56.274;43.980;2023-04-25T08:28:37;99784.97;;;19.87;31.74
69982;BME280;57319;56.274;43.980;2023-04-25T08:31:03;99779.13;;;19.99;31.58
69982;BME280;57319;56.274;43.980;2023-04-25T08:33:28;99779.25;;;19.96;31.52
69982;BME280;57319;56.274;43.980;2023-04-25T08:35:55;99784.50;;;19.96;31.60
69982;BME280;57319;56.274;43.980;2023-04-25T08:38:21;99782.78;;;20.12;31.25
69982;BME280;57319;56.274;43.980;2023-04-25T08:40:49;99780.75;;;20.35;30.77
69982;BME280;57319;56.274;43.980;2023-04-25T08:43:18;99788.44;;;20.54;30.35
69982;BME280;57319;56.274;43.980;2023-04-25T08:45:44;99786.50;;;20.58;30.39
69982;BME280;57319;56.274;43.980;2023-04-25T08:48:13;99773.00;;;20.49;29.92
69982;BME280;57319;56.274;43.980;2023-04-25T08:50:40;99775.59;;;20.49;30.05
69982;BME280;57319;56.274;43.980;2023-04-25T08:53:08;99769.81;;;20.44;30.19
69982;BME280;57319;56.274;43.980;2023-04-25T08:55:37;99767.75;;;20.49;30.17
69982;BME280;57319;56.274;43.980;2023-04-25T08:58:06;99766.97;;;20.65;29.99
69982;BME280;57319;56.274;43.980;2023-04-25T09:00:33;99777.53;;;20.79;29.54
69982;BME280;57319;56.274;43.980;2023-04-25T09:02:59;99770.72;;;20.59;29.30
69982;BME280;57319;56.274;43.980;2023-04-25T09:05:25;99772.59;;;20.57;29.68
69982;BME280;57319;56.274;43.980;2023-04-25T09:07:51;99770.28;;;20.51;29.76
69982;BME280;57319;56.274;43.980;2023-04-25T09:10:16;99770.44;;;20.32;30.05
69982;BME280;57319;56.274;43.980;2023-04-25T09:12:42;99777.53;;;20.12;30.56
69982;BME280;57319;56.274;43.980;2023-04-25T09:15:10;99771.06;;;19.86;31.04
69982;BME280;57319;56.274;43.980;2023-04-25T09:17:36;99763.91;;;19.72;31.33
69982;BME280;57319;56.274;43.980;2023-04-25T09:20:10;99768.75;;;19.62;31.60
69982;BME280;57319;56.274;43.980;2023-04-25T09:22:37;99760.72;;;19.48;31.83
69982;BME280;57319;56.274;43.980;2023-04-25T09:25:12;99760.50;;;19.35;32.36
69982;BME280;57319;56.274;43.980;2023-04-25T09:27:57;99752.41;;;19.41;32.45
69982;BME280;57319;56.274;43.980;2023-04-25T09:30:30;99753.69;;;19.67;32.15
69982;BME280;57319;56.274;43.980;2023-04-25T09:32:57;99749.41;;;19.84;32.06
69982;BME280;57319;56.274;43.980;2023-04-25T09:35:25;99740.41;;;19.90;32.05
69982;BME280;57319;56.274;43.980;2023-04-25T09:37:55;99746.84;;;20.00;31.87
69982;BME280;57319;56.274;43.980;2023-04-25T09:40:21;99749.38;;;20.02;31.97
69982;BME280;57319;56.274;43.980;2023-04-25T09:42:47;99747.91;;;19.96;32.10
69982;BME280;57319;56.274;43.980;2023-04-25T09:45:13;99747.91;;;19.96;32.42
69982;BME280;57319;56.274;43.980;2023-04-25T09:47:41;99747.00;;;19.97;32.52
69982;BME280;57319;56.274;43.980;2023-04-25T09:50:16;99749.94;;;19.91;32.39
69982;BME280;57319;56.274;43.980;2023-04-25T09:52:42;99753.41;;;19.91;32.50
69982;BME280;57319;56.274;43.980;2023-04-25T09:55:08;99741.50;;;19.86;32.59
69982;BME280;57319;56.274;43.980;2023-04-25T09:57:35;99746.44;;;19.73;32.73
69982;BME280;57319;56.274;43.980;2023-04-25T10:00:05;99753.31;;;19.58;33.18
69982;BME280;57319;56.274;43.980;2023-04-25T10:02:35;99740.88;;;19.45;33.20
69982;BME280;57319;56.274;43.980;2023-04-25T10:05:02;99735.00;;;19.23;33.22
69982;BME280;57319;56.274;43.980;2023-04-25T10:07:31;99742.69;;;19.08;33.57
69982;BME280;57319;56.274;43.980;2023-04-25T10:10:00;99738.56;;;19.03;33.64
69982;BME280;57319;56.274;43.980;2023-04-25T10:12:33;99739.16;;;18.90;33.56
69982;BME280;57319;56.274;43.980;2023-04-25T10:14:59;99739.28;;;19.06;33.32
69982;BME280;57319;56.274;43.980;2023-04-25T10:17:26;99735.41;;;19.32;32.93
69982;BME280;57319;56.274;43.980;2023-04-25T10:19:54;99730.13;;;19.52;32.43
69982;BME280;57319;56.274;43.980;2023-04-25T10:22:29;99727.81;;;19.63;32.18
69982;BME280;57319;56.274;43.980;2023-04-25T10:24:56;99725.34;;;19.77;32.10
69982;BME280;57319;56.274;43.980;2023-04-25T10:27:22;99725.50;;;19.92;32.16
69982;BME280;57319;56.274;43.980;2023-04-25T10:30:23;99720.19;;;19.93;31.58
69982;BME280;57319;56.274;43.980;2023-04-25T10:32:50;99718.72;;;20.05;31.67
69982;BME280;57319;56.274;43.980;2023-04-25T10:35:18;99726.06;;;20.14;31.52
69982;BME280;57319;56.274;43.980;2023-04-25T10:38:04;99730.28;;;20.17;31.10
69982;BME280;57319;56.274;43.980;2023-04-25T10:40:31;99716.88;;;20.07;31.18
69982;BME280;57319;56.274;43.980;2023-04-25T10:43:33;99709.44;;;19.99;30.98
69982;BME280;57319;56.274;43.980;2023-04-25T10:45:59;99713.75;;;20.00;31.36
69982;BME280;57319;56.274;43.980;2023-04-25T10:48:29;99716.44;;;19.99;31.52
69982;BME280;57319;56.274;43.980;2023-04-25T10:51:36;99713.22;;;19.94;31.59
69982;BME280;57319;56.274;43.980;2023-04-25T10:54:05;99714.31;;;19.90;31.56
69982;BME280;57319;56.274;43.980;2023-04-25T10:56:38;99708.75;;;19.78;31.84
69982;BME280;57319;56.274;43.980;2023-04-25T10:59:19;99712.78;;;19.86;31.76
69982;BME280;57319;56.274;43.980;2023-04-25T11:01:47;99703.94;;;19.88;31.74
69982;BME280;57319;56.274;43.980;2023-04-25T11:04:20;99707.72;;;19.82;31.44
69982;BME280;57319;56.274;43.980;2023-04-25T11:09:23;99706.31;;;19.40;31.61
69982;BME280;57319;56.274;43.980;2023-04-25T11:11:56;99704.03;;;19.17;31.83
69982;BME280;57319;56.274;43.980;2023-04-25T11:14:23;99702.50;;;19.12;31.91
69982;BME280;57319;56.274;43.980;2023-04-25T11:16:56;99697.78;;;19.19;32.32
69982;BME280;57319;56.274;43.980;2023-04-25T11:19:24;99703.06;;;19.18;32.09
69982;BME280;57319;56.274;43.980;2023-04-25T11:21:50;99700.84;;;19.27;32.20
69982;BME280;57319;56.274;43.980;2023-04-25T11:24:16;99703.41;;;19.29;32.22
69982;BME280;57319;56.274;43.980;2023-04-25T11:26:43;99696.34;;;19.31;32.31
69982;BME280;57319;56.274;43.980;2023-04-25T11:29:09;99694.06;;;19.25;32.45
69982;BME280;57319;56.274;43.980;2023-04-25T11:31:34;99691.56;;;19.22;32.58
69982;BME280;57319;56.274;43.980;2023-04-25T11:34:00;99689.03;;;19.20;32.99
69982;BME280;57319;56.274;43.980;2023-04-25T11:36:26;99691.56;;;19.22;33.17
69982;BME280;57319;56.274;43.980;2023-04-25T11:38:53;99685.53;;;19.21;33.63
69982;BME280;57319;56.274;43.980;2023-04-25T11:41:19;99686.06;;;19.28;33.94
69982;BME280;57319;56.274;43.980;2023-04-25T11:43:45;99687.75;;;19.29;34.57
69982;BME280;57319;56.274;43.980;2023-04-25T11:46:11;99682.75;;;19.24;34.81
69982;BME280;57319;56.274;43.980;2023-04-25T11:48:38;99679.16;;;19.27;35.12
69982;BME280;57319;56.274;43.980;2023-04-25T11:51:04;99678.22;;;19.10;35.49
69982;BME280;57319;56.274;43.980;2023-04-25T11:53:30;99683.59;;;19.07;35.72
69982;BME280;57319;56.274;43.980;2023-04-25T11:55:56;99677.63;;;18.86;36.35
69982;BME280;57319;56.274;43.980;2023-04-25T11:58:22;99681.34;;;18.63;36.98
69982;BME280;57319;56.274;43.980;2023-04-25T12:00:48;99680.94;;;18.34;37.65
69982;BME280;57319;56.274;43.980;2023-04-25T12:03:14;99681.22;;;18.28;38.04
69982;BME280;57319;56.274;43.980;2023-04-25T12:05:40;99679.47;;;18.09;38.45
69982;BME280;57319;56.274;43.980;2023-04-25T12:08:15;99673.94;;;17.96;39.22
69982;BME280;57319;56.274;43.980;2023-04-25T12:10:44;99677.31;;;17.99;38.94
69982;BME280;57319;56.274;43.980;2023-04-25T12:13:20;99672.22;;;17.95;39.80
69982;BME280;57319;56.274;43.980;2023-04-25T12:15:46;99671.84;;;17.84;39.43
69982;BME280;57319;56.274;43.980;2023-04-25T12:18:12;99672.72;;;17.85;39.49
69982;BME280;57319;56.274;43.980;2023-04-25T12:20:38;99670.56;;;17.74;39.88
69982;BME280;57319;56.274;43.980;2023-04-25T12:23:05;99665.97;;;17.60;40.07
69982;BME280;57319;56.274;43.980;2023-04-25T12:25:43;99657.75;;;17.49;40.34
69982;BME280;57319;56.274;43.980;2023-04-25T12:28:24;99658.09;;;17.41;40.54
69982;BME280;57319;56.274;43.980;2023-04-25T12:30:57;99654.13;;;17.32;40.25
69982;BME280;57319;56.274;43.980;2023-04-25T12:33:24;99651.66;;;17.29;40.51
69982;BME280;57319;56.274;43.980;2023-04-25T12:35:50;99646.44;;;17.29;40.58
69982;BME280;57319;56.274;43.980;2023-04-25T12:38:27;99659.59;;;17.26;40.81
69982;BME280;57319;56.274;43.980;2023-04-25T12:40:53;99649.31;;;17.23;40.95
69982;BME280;57319;56.274;43.980;2023-04-25T12:43:19;99653.19;;;17.12;41.01
69982;BME280;57319;56.274;43.980;2023-04-25T12:45:49;99645.78;;;17.03;41.39
69982;BME280;57319;56.274;43.980;2023-04-25T12:48:17;99651.94;;;17.01;41.29
69982;BME280;57319;56.274;43.980;2023-04-25T12:50:43;99653.09;;;16.93;41.60
69982;BME280;57319;56.274;43.980;2023-04-25T12:53:09;99649.81;;;16.88;41.98